sensor_id;sensor_type;location;lat;lon;timestamp;pressure;altitude;pressure_sealevel;temperature;humidity
19447;BME280;9862;49.462;11.054;2023-05-11T00:01:30;97781.41;;;16.16;100.00
19447;BME280;9862;49.462;11.054;2023-05-11T00:03:56;97781.97;;;16.18;100.00
19447;BME280;9862;49.462;11.054;2023-05-11T00:06:23;97782.28;;;16.22;100.00
19447;BME280;9862;49.462;11.054;2023-05-11T00:08:50;97783.41;;;16.26;100.00
19447;BME280;9862;49.462;11.054;2023-05-11T00:11:18;97782.88;;;16.29;100.00
19447;BME280;9862;49.462;11.054;2023-05-11T00:13:45;97782.06;;;16.28;100.00
19447;BME280;9862;49.462;11.054;2023-05-11T00:16:12;97781.63;;;16.37;100.00
19447;BME280;9862;49.462;11.054;2023-05-11T00:18:39;97777.25;;;16.30;100.00
19447;BME280;9862;49.462;11.054;2023-05-11T00:21:05;97772.94;;;16.29;100.00
19447;BME280;9862;49.462;11.054;2023-05-11T00:23:32;97776.22;;;16.31;100.00
19447;BME280;9862;49.462;11.054;2023-05-11T00:25:58;97768.09;;;16.26;100.00
19447;BME280;9862;49.462;11.054;2023-05-11T00:28:26;97771.03;;;16.25;100.00
19447;BME280;9862;49.462;11.054;2023-05-11T00:30:54;97769.97;;;16.26;100.00
19447;BME280;9862;49.462;11.054;2023-05-11T00:33:21;97767.28;;;16.26;100.00
19447;BME280;9862;49.462;11.054;2023-05-11T00:35:48;97767.34;;;16.31;100.00
19447;BME280;9862;49.462;11.054;2023-05-11T00:38:14;97764.66;;;16.31;100.00
19447;BME280;9862;49.462;11.054;2023-05-11T00:40:41;97766.03;;;16.34;100.00
19447;BME280;9862;49.462;11.054;2023-05-11T00:43:07;97764.19;;;16.39;100.00
19447;BME280;9862;49.462;11.054;2023-05-11T00:45:36;97759.59;;;16.35;100.00
19447;BME280;9862;49.462;11.054;2023-05-11T00:48:04;97758.28;;;16.37;100.00
19447;BME280;9862;49.462;11.054;2023-05-11T00:50:31;97753.69;;;16.33;100.00
19447;BME280;9862;49.462;11.054;2023-05-11T00:52:58;97757.16;;;16.33;100.00
19447;BME280;9862;49.462;11.054;2023-05-11T00:55:25;97751.84;;;16.38;100.00
19447;BME280;9862;49.462;11.054;2023-05-11T00:57:52;97764.16;;;16.34;100.00
19447;BME280;9862;49.462;11.054;2023-05-11T01:00:19;97762.53;;;16.33;100.00
19447;BME280;9862;49.462;11.054;2023-05-11T01:02:48;97765.72;;;16.30;100.00
19447;BME280;9862;49.462;11.054;2023-05-11T01:05:14;97760.91;;;16.32;100.00
19447;BME280;9862;49.462;11.054;2023-05-11T01:07:47;97765.16;;;16.28;100.00
19447;BME280;9862;49.462;11.054;2023-05-11T01:10:20;97757.72;;;16.35;100.00
19447;BME280;9862;49.462;11.054;2023-05-11T01:13:03;97757.09;;;16.28;100.00
19447;BME280;9862;49.462;11.054;2023-05-11T01:15:37;97754.94;;;16.25;100.00
19447;BME280;9862;49.462;11.054;2023-05-11T01:18:14;97763.34;;;16.34;100.00
19447;BME280;9862;49.462;11.054;2023-05-11T01:20:45;97751.28;;;16.36;100.00
19447;BME280;9862;49.462;11.054;2023-05-11T01:26:35;97762.47;;;16.28;100.00
19447;BME280;9862;49.462;11.054;2023-05-11T01:29:18;97760.28;;;16.25;100.00
19447;BME280;9862;49.462;11.054;2023-05-11T01:31:55;97759.22;;;16.26;100.00
19447;BME280;9862;49.462;11.054;2023-05-11T01:34:24;97767.78;;;16.23;100.00
19447;BME280;9862;49.462;11.054;2023-05-11T01:36:53;97764.03;;;16.24;100.00
19447;BME280;9862;49.462;11.054;2023-05-11T01:39:28;97758.06;;;16.17;100.00
19447;BME280;9862;49.462;11.054;2023-05-11T01:41:57;97758.06;;;16.17;100.00
19447;BME280;9862;49.462;11.054;2023-05-11T01:44:27;97758.06;;;16.17;100.00
19447;BME280;9862;49.462;11.054;2023-05-11T01:46:59;97755.44;;;16.22;100.00
19447;BME280;9862;49.462;11.054;2023-05-11T01:49:26;97756.44;;;16.16;100.00
19447;BME280;9862;49.462;11.054;2023-05-11T01:51:54;97754.75;;;16.10;100.00
19447;BME280;9862;49.462;11.054;2023-05-11T01:54:23;97752.38;;;16.13;100.00
19447;BME280;9862;49.462;11.054;2023-05-11T01:56:52;97755.31;;;16.12;100.00
19447;BME280;9862;49.462;11.054;2023-05-11T01:59:19;97753.63;;;16.06;100.00
19447;BME280;9862;49.462;11.054;2023-05-11T02:01:46;97753.06;;;16.03;100.00
19447;BME280;9862;49.462;11.054;2023-05-11T02:04:17;97753.69;;;16.11;100.00
19447;BME280;9862;49.462;11.054;2023-05-11T02:06:46;97763.31;;;16.07;100.00
19447;BME280;9862;49.462;11.054;2023-05-11T02:09:15;97757.16;;;16.11;100.00
19447;BME280;9862;49.462;11.054;2023-05-11T02:11:44;97760.00;;;15.99;100.00
19447;BME280;9862;49.462;11.054;2023-05-11T02:14:13;97764.50;;;15.94;100.00
19447;BME280;9862;49.462;11.054;2023-05-11T02:16:42;97756.81;;;16.02;100.00
19447;BME280;9862;49.462;11.054;2023-05-11T02:19:13;97752.19;;;15.98;100.00
19447;BME280;9862;49.462;11.054;2023-05-11T02:21:42;97754.75;;;15.88;100.00
19447;BME280;9862;49.462;11.054;2023-05-11T02:24:10;97751.34;;;15.92;100.00
19447;BME280;9862;49.462;11.054;2023-05-11T02:26:37;97755.06;;;15.91;100.00
19447;BME280;9862;49.462;11.054;2023-05-11T02:29:04;97750.19;;;15.88;100.00
19447;BME280;9862;49.462;11.054;2023-05-11T02:31:35;97749.19;;;15.94;100.00
19447;BME280;9862;49.462;11.054;2023-05-11T02:34:09;97750.50;;;15.92;100.00
19447;BME280;9862;49.462;11.054;2023-05-11T02:36:47;97752.16;;;15.93;100.00
19447;BME280;9862;49.462;11.054;2023-05-11T02:39:16;97754.88;;;15.98;100.00
19447;BME280;9862;49.462;11.054;2023-05-11T02:41:52;97749.25;;;15.99;100.00
19447;BME280;9862;49.462;11.054;2023-05-11T02:44:21;97754.63;;;15.99;100.00
19447;BME280;9862;49.462;11.054;2023-05-11T02:46:51;97755.50;;;16.05;100.00
19447;BME280;9862;49.462;11.054;2023-05-11T02:49:21;97748.38;;;16.16;100.00
19447;BME280;9862;49.462;11.054;2023-05-11T02:51:54;97748.88;;;16.13;100.00
19447;BME280;9862;49.462;11.054;2023-05-11T02:54:22;97748.78;;;16.02;100.00
19447;BME280;9862;49.462;11.054;2023-05-11T02:56:50;97752.69;;;15.95;100.00
19447;BME280;9862;49.462;11.054;2023-05-11T02:59:17;97746.94;;;15.86;100.00
19447;BME280;9862;49.462;11.054;2023-05-11T03:01:43;97751.81;;;15.89;100.00
19447;BME280;9862;49.462;11.054;2023-05-11T03:04:10;97749.19;;;15.94;100.00
19447;BME280;9862;49.462;11.054;2023-05-11T03:06:37;97748.56;;;15.87;100.00
19447;BME280;9862;49.462;11.054;2023-05-11T03:09:05;97746.41;;;15.84;100.00
19447;BME280;9862;49.462;11.054;2023-05-11T03:11:32;97745.81;;;15.82;100.00
19447;BME280;9862;49.462;11.054;2023-05-11T03:14:00;97746.19;;;15.69;100.00
19447;BME280;9862;49.462;11.054;2023-05-11T03:16:27;97747.94;;;15.80;100.00
19447;BME280;9862;49.462;11.054;2023-05-11T03:18:54;97749.56;;;15.81;100.00
19447;BME280;9862;49.462;11.054;2023-05-11T03:21:22;97750.50;;;15.70;100.00
19447;BME280;9862;49.462;11.054;2023-05-11T03:23:50;97746.13;;;15.64;100.00
19447;BME280;9862;49.462;11.054;2023-05-11T03:26:19;97746.03;;;15.59;100.00
19447;BME280;9862;49.462;11.054;2023-05-11T03:28:47;97751.06;;;15.55;100.00
19447;BME280;9862;49.462;11.054;2023-05-11T03:31:14;97743.69;;;15.45;100.00
19447;BME280;9862;49.462;11.054;2023-05-11T03:33:41;97756.09;;;15.52;100.00
19447;BME280;9862;49.462;11.054;2023-05-11T03:36:09;97743.25;;;15.54;100.00
19447;BME280;9862;49.462;11.054;2023-05-11T03:38:37;97750.75;;;15.52;100.00
19447;BME280;9862;49.462;11.054;2023-05-11T03:41:05;97737.34;;;15.52;100.00
19447;BME280;9862;49.462;11.054;2023-05-11T03:43:34;97740.56;;;15.54;100.00
19447;BME280;9862;49.462;11.054;2023-05-11T03:46:02;97734.97;;;15.55;100.00
19447;BME280;9862;49.462;11.054;2023-05-11T03:48:29;97734.81;;;15.62;100.00
19447;BME280;9862;49.462;11.054;2023-05-11T03:50:58;97743.19;;;15.49;100.00
19447;BME280;9862;49.462;11.054;2023-05-11T03:53:25;97735.16;;;15.49;100.00
19447;BME280;9862;49.462;11.054;2023-05-11T03:55:52;97732.72;;;15.64;100.00
19447;BME280;9862;49.462;11.054;2023-05-11T03:58:19;97734.34;;;15.65;100.00
19447;BME280;9862;49.462;11.054;2023-05-11T04:00:47;97738.94;;;15.69;100.00
19447;BME280;9862;49.462;11.054;2023-05-11T04:03:14;97726.34;;;15.70;100.00
19447;BME280;9862;49.462;11.054;2023-05-11T04:05:40;97726.91;;;15.72;100.00
19447;BME280;9862;49.462;11.054;2023-05-11T04:08:08;97732.22;;;15.67;100.00
19447;BME280;9862;49.462;11.054;2023-05-11T04:10:36;97727.50;;;15.57;100.00
19447;BME280;9862;49.462;11.054;2023-05-11T04:13:03;97722.31;;;15.51;100.00
19447;BME280;9862;49.462;11.054;2023-05-11T04:15:30;97730.91;;;15.53;100.00
19447;BME280;9862;49.462;11.054;2023-05-11T04:17:57;97732.22;;;15.50;100.00
19447;BME280;9862;49.462;11.054;2023-05-11T04:20:24;97730.69;;;15.54;100.00
19447;BME280;9862;49.462;11.054;2023-05-11T04:22:51;97728.56;;;15.56;100.00
19447;BME280;9862;49.462;11.054;2023-05-11T04:25:17;97730.09;;;15.69;100.00
19447;BME280;9862;49.462;11.054;2023-05-11T04:27:44;97734.38;;;15.70;100.00
19447;BME280;9862;49.462;11.054;2023-05-11T04:30:11;97737.31;;;15.68;100.00
19447;BME280;9862;49.462;11.054;2023-05-11T04:32:38;97733.84;;;15.68;100.00
19447;BME280;9862;49.462;11.054;2023-05-11T04:35:06;97737.06;;;15.70;100.00
19447;BME280;9862;49.462;11.054;2023-05-11T04:37:33;97736.50;;;15.68;100.00
19447;BME280;9862;49.462;11.054;2023-05-11T04:40:00;97733.91;;;15.73;100.00
19447;BME280;9862;49.462;11.054;2023-05-11T04:42:26;97737.19;;;15.80;100.00
19447;BME280;9862;49.462;11.054;2023-05-11T04:44:55;97734.78;;;15.79;100.00
19447;BME280;9862;49.462;11.054;2023-05-11T04:47:22;97738.13;;;15.69;100.00
19447;BME280;9862;49.462;11.054;2023-05-11T04:49:48;97742.31;;;15.82;100.00
19447;BME280;9862;49.462;11.054;2023-05-11T04:52:16;97734.59;;;15.85;100.00
19447;BME280;9862;49.462;11.054;2023-05-11T04:54:43;97742.09;;;15.83;100.00
19447;BME280;9862;49.462;11.054;2023-05-11T04:57:09;97735.03;;;15.77;100.00
19447;BME280;9862;49.462;11.054;2023-05-11T04:59:36;97745.13;;;15.70;100.00
19447;BME280;9862;49.462;11.054;2023-05-11T05:02:02;97738.09;;;15.64;100.00
19447;BME280;9862;49.462;11.054;2023-05-11T05:04:29;97735.72;;;15.67;100.00
19447;BME280;9862;49.462;11.054;2023-05-11T05:06:56;97740.31;;;15.72;100.00
19447;BME280;9862;49.462;11.054;2023-05-11T05:09:24;97738.94;;;15.69;100.00
19447;BME280;9862;49.462;11.054;2023-05-11T05:11:50;97732.72;;;15.64;100.00
19447;BME280;9862;49.462;11.054;2023-05-11T05:14:17;97742.44;;;15.70;100.00
19447;BME280;9862;49.462;11.054;2023-05-11T05:16:44;97743.59;;;15.74;100.00
19447;BME280;9862;49.462;11.054;2023-05-11T05:19:11;97742.44;;;15.70;100.00
19447;BME280;9862;49.462;11.054;2023-05-11T05:21:37;97746.94;;;15.64;100.00
19447;BME280;9862;49.462;11.054;2023-05-11T05:24:05;97750.00;;;15.73;100.00
19447;BME280;9862;49.462;11.054;2023-05-11T05:26:36;97751.31;;;15.54;100.00
19447;BME280;9862;49.462;11.054;2023-05-11T05:29:03;97757.25;;;15.56;100.00
19447;BME280;9862;49.462;11.054;2023-05-11T05:31:30;97758.16;;;15.44;100.00
19447;BME280;9862;49.462;11.054;2023-05-11T05:33:57;97758.09;;;15.39;100.00
19447;BME280;9862;49.462;11.054;2023-05-11T05:36:24;97763.34;;;15.34;100.00
19447;BME280;9862;49.462;11.054;2023-05-11T05:38:50;97768.56;;;15.24;100.00
19447;BME280;9862;49.462;11.054;2023-05-11T05:41:17;97765.00;;;15.18;100.00
19447;BME280;9862;49.462;11.054;2023-05-11T05:43:46;97775.00;;;15.23;100.00
19447;BME280;9862;49.462;11.054;2023-05-11T05:46:13;97767.94;;;15.17;100.00
19447;BME280;9862;49.462;11.054;2023-05-11T05:48:39;97769.88;;;15.05;100.00
19447;BME280;9862;49.462;11.054;2023-05-11T05:51:06;97771.44;;;15.01;100.00
19447;BME280;9862;49.462;11.054;2023-05-11T05:53:32;97773.34;;;15.05;100.00
19447;BME280;9862;49.462;11.054;2023-05-11T05:55:59;97775.00;;;15.06;100.00
19447;BME280;9862;49.462;11.054;2023-05-11T05:58:25;97776.28;;;15.21;100.00
19447;BME280;9862;49.462;11.054;2023-05-11T06:00:53;97776.06;;;15.22;100.00
19447;BME280;9862;49.462;11.054;2023-05-11T06:03:20;97780.75;;;15.15;100.00
19447;BME280;9862;49.462;11.054;2023-05-11T06:05:46;97772.34;;;15.06;100.00
19447;BME280;9862;49.462;11.054;2023-05-11T06:08:13;97774.00;;;14.79;100.00
19447;BME280;9862;49.462;11.054;2023-05-11T06:10:40;97778.59;;;14.67;100.00
19447;BME280;9862;49.462;11.054;2023-05-11T06:13:07;97784.00;;;14.55;100.00
19447;BME280;9862;49.462;11.054;2023-05-11T06:15:33;97786.25;;;14.58;100.00
19447;BME280;9862;49.462;11.054;2023-05-11T06:18:01;97780.28;;;14.56;100.00
19447;BME280;9862;49.462;11.054;2023-05-11T06:20:30;97785.03;;;14.25;100.00
19447;BME280;9862;49.462;11.054;2023-05-11T06:22:57;97775.81;;;14.33;100.00
19447;BME280;9862;49.462;11.054;2023-05-11T06:25:23;97776.50;;;14.40;100.00
19447;BME280;9862;49.462;11.054;2023-05-11T06:27:51;97784.59;;;14.57;100.00
19447;BME280;9862;49.462;11.054;2023-05-11T06:30:18;97775.88;;;14.78;100.00
19447;BME280;9862;49.462;11.054;2023-05-11T06:32:45;97781.81;;;14.80;100.00
19447;BME280;9862;49.462;11.054;2023-05-11T06:35:13;97778.63;;;14.83;100.00
19447;BME280;9862;49.462;11.054;2023-05-11T06:37:39;97782.06;;;14.79;100.00
19447;BME280;9862;49.462;11.054;2023-05-11T06:40:07;97776.63;;;14.91;100.00
19447;BME280;9862;49.462;11.054;2023-05-11T06:42:34;97777.09;;;14.87;100.00
19447;BME280;9862;49.462;11.054;2023-05-11T06:45:01;97777.00;;;14.82;100.00
19447;BME280;9862;49.462;11.054;2023-05-11T06:47:27;97787.66;;;14.77;100.00
19447;BME280;9862;49.462;11.054;2023-05-11T06:49:54;97787.97;;;14.81;100.00
19447;BME280;9862;49.462;11.054;2023-05-11T06:52:22;97773.84;;;14.85;100.00
19447;BME280;9862;49.462;11.054;2023-05-11T06:54:48;97772.97;;;14.80;100.00
19447;BME280;9862;49.462;11.054;2023-05-11T06:57:15;97777.41;;;14.74;100.00
19447;BME280;9862;49.462;11.054;2023-05-11T06:59:42;97776.16;;;14.65;100.00
19447;BME280;9862;49.462;11.054;2023-05-11T07:02:08;97777.78;;;14.49;100.00
19447;BME280;9862;49.462;11.054;2023-05-11T07:04:35;97785.00;;;14.49;100.00
19447;BME280;9862;49.462;11.054;2023-05-11T07:07:02;97776.66;;;14.62;100.00
19447;BME280;9862;49.462;11.054;2023-05-11T07:09:30;97782.75;;;14.74;100.00
19447;BME280;9862;49.462;11.054;2023-05-11T07:11:57;97778.63;;;14.83;100.00
19447;BME280;9862;49.462;11.054;2023-05-11T07:14:23;97783.25;;;14.71;100.00
19447;BME280;9862;49.462;11.054;2023-05-11T07:16:50;97775.78;;;14.73;100.00
19447;BME280;9862;49.462;11.054;2023-05-11T07:19:17;97790.38;;;14.66;100.00
19447;BME280;9862;49.462;11.054;2023-05-11T07:21:44;97788.25;;;14.51;100.00
19447;BME280;9862;49.462;11.054;2023-05-11T07:24:10;97784.50;;;14.52;100.00
19447;BME280;9862;49.462;11.054;2023-05-11T07:26:38;97796.84;;;14.53;100.00
19447;BME280;9862;49.462;11.054;2023-05-11T07:29:05;97784.84;;;14.55;100.00
19447;BME280;9862;49.462;11.054;2023-05-11T07:31:32;97785.31;;;14.52;100.00
19447;BME280;9862;49.462;11.054;2023-05-11T07:34:00;97789.88;;;14.52;100.00
19447;BME280;9862;49.462;11.054;2023-05-11T07:36:27;97791.25;;;14.43;100.00
19447;BME280;9862;49.462;11.054;2023-05-11T07:38:54;97783.72;;;14.40;100.00
19447;BME280;9862;49.462;11.054;2023-05-11T07:41:22;97784.28;;;14.42;100.00
19447;BME280;9862;49.462;11.054;2023-05-11T07:43:52;97792.44;;;14.47;100.00
19447;BME280;9862;49.462;11.054;2023-05-11T07:46:18;97792.28;;;14.53;100.00
19447;BME280;9862;49.462;11.054;2023-05-11T07:48:45;97795.41;;;14.62;100.00
19447;BME280;9862;49.462;11.054;2023-05-11T07:51:12;97792.84;;;14.67;100.00
19447;BME280;9862;49.462;11.054;2023-05-11T07:53:38;97791.66;;;14.63;100.00
19447;BME280;9862;49.462;11.054;2023-05-11T07:56:05;97793.66;;;14.68;100.00
19447;BME280;9862;49.462;11.054;2023-05-11T07:58:32;97787.94;;;14.64;100.00
19447;BME280;9862;49.462;11.054;2023-05-11T08:01:00;97787.44;;;14.50;100.00
19447;BME280;9862;49.462;11.054;2023-05-11T08:03:26;97794.34;;;14.63;100.00
19447;BME280;9862;49.462;11.054;2023-05-11T08:05:53;97790.03;;;14.62;100.00
19447;BME280;9862;49.462;11.054;2023-05-11T08:08:20;97795.53;;;14.55;100.00
19447;BME280;9862;49.462;11.054;2023-05-11T08:10:46;97791.66;;;14.63;100.00
19447;BME280;9862;49.462;11.054;2023-05-11T08:13:13;97783.38;;;14.48;100.00
19447;BME280;9862;49.462;11.054;2023-05-11T08:15:39;97788.28;;;14.27;100.00
19447;BME280;9862;49.462;11.054;2023-05-11T08:18:07;97792.75;;;14.22;100.00
19447;BME280;9862;49.462;11.054;2023-05-11T08:20:34;97798.50;;;14.02;100.00
19447;BME280;9862;49.462;11.054;2023-05-11T08:23:01;97802.59;;;13.93;100.00
19447;BME280;9862;49.462;11.054;2023-05-11T08:25:28;97793.28;;;13.84;100.00
19447;BME280;9862;49.462;11.054;2023-05-11T08:27:54;97793.28;;;13.84;100.00
19447;BME280;9862;49.462;11.054;2023-05-11T08:30:21;97793.25;;;13.95;100.00
19447;BME280;9862;49.462;11.054;2023-05-11T08:32:47;97797.94;;;14.00;100.00
19447;BME280;9862;49.462;11.054;2023-05-11T08:35:15;97792.06;;;14.15;100.00
19447;BME280;9862;49.462;11.054;2023-05-11T08:37:42;97793.22;;;14.07;100.00
19447;BME280;9862;49.462;11.054;2023-05-11T08:40:10;97793.91;;;14.14;100.00
19447;BME280;9862;49.462;11.054;2023-05-11T08:42:39;97795.06;;;14.18;100.00
19447;BME280;9862;49.462;11.054;2023-05-11T08:45:07;97797.97;;;14.28;100.00
19447;BME280;9862;49.462;11.054;2023-05-11T08:47:35;97794.00;;;14.31;100.00
19447;BME280;9862;49.462;11.054;2023-05-11T08:50:02;97784.28;;;14.42;100.00
19447;BME280;9862;49.462;11.054;2023-05-11T08:52:30;97784.84;;;14.44;100.00
19447;BME280;9862;49.462;11.054;2023-05-11T08:54:57;97786.94;;;14.53;100.00
19447;BME280;9862;49.462;11.054;2023-05-11T08:57:24;97787.03;;;14.58;100.00
19447;BME280;9862;49.462;11.054;2023-05-11T08:59:53;97789.56;;;14.65;100.00
19447;BME280;9862;49.462;11.054;2023-05-11T09:02:20;97789.09;;;14.68;100.00
19447;BME280;9862;49.462;11.054;2023-05-11T09:04:47;97787.47;;;14.67;100.00
19447;BME280;9862;49.462;11.054;2023-05-11T09:07:15;97793.97;;;14.71;100.00
19447;BME280;9862;49.462;11.054;2023-05-11T09:09:44;97793.03;;;14.66;100.00
19447;BME280;9862;49.462;11.054;2023-05-11T09:12:11;97794.84;;;14.60;100.00
19447;BME280;9862;49.462;11.054;2023-05-11T09:14:38;97786.31;;;14.63;100.00
19447;BME280;9862;49.462;11.054;2023-05-11T09:17:04;97786.16;;;14.70;100.00
19447;BME280;9862;49.462;11.054;2023-05-11T09:19:31;97790.91;;;14.79;100.00
19447;BME280;9862;49.462;11.054;2023-05-11T09:21:58;97794.00;;;14.88;100.00
19447;BME280;9862;49.462;11.054;2023-05-11T09:24:25;97787.97;;;14.81;100.00
19447;BME280;9862;49.462;11.054;2023-05-11T09:27:06;97782.75;;;14.74;100.00
19447;BME280;9862;49.462;11.054;2023-05-11T09:29:33;97793.16;;;14.71;100.00
19447;BME280;9862;49.462;11.054;2023-05-11T09:32:00;97786.84;;;14.77;100.00
19447;BME280;9862;49.462;11.054;2023-05-11T09:34:26;97785.06;;;14.82;100.00
19447;BME280;9862;49.462;11.054;2023-05-11T09:36:54;97788.97;;;14.92;100.00
19447;BME280;9862;49.462;11.054;2023-05-11T09:39:27;97788.47;;;14.95;100.00
19447;BME280;9862;49.462;11.054;2023-05-11T09:42:14;97785.88;;;15.00;100.00
19447;BME280;9862;49.462;11.054;2023-05-11T09:44:41;97786.59;;;14.78;100.00
19447;BME280;9862;49.462;11.054;2023-05-11T09:47:12;97787.13;;;14.64;100.00
19447;BME280;9862;49.462;11.054;2023-05-11T09:49:39;97789.75;;;14.75;100.00
19447;BME280;9862;49.462;11.054;2023-05-11T09:52:09;97781.75;;;14.64;100.00
19447;BME280;9862;49.462;11.054;2023-05-11T09:54:40;97780.19;;;14.79;100.00
19447;BME280;9862;49.462;11.054;2023-05-11T09:57:23;97776.69;;;14.79;100.00
19447;BME280;9862;49.462;11.054;2023-05-11T09:59:50;97786.00;;;14.76;100.00
19447;BME280;9862;49.462;11.054;2023-05-11T10:02:18;97776.69;;;14.79;100.00
19447;BME280;9862;49.462;11.054;2023-05-11T10:04:45;97777.75;;;14.78;100.00
19447;BME280;9862;49.462;11.054;2023-05-11T10:07:22;97783.91;;;14.78;100.00
19447;BME280;9862;49.462;11.054;2023-05-11T10:09:50;97771.09;;;14.80;100.00
19447;BME280;9862;49.462;11.054;2023-05-11T10:12:20;97774.72;;;14.74;100.00
19447;BME280;9862;49.462;11.054;2023-05-11T10:14:50;97779.03;;;14.75;100.00
19447;BME280;9862;49.462;11.054;2023-05-11T10:17:19;97776.75;;;14.67;100.00
19447;BME280;9862;49.462;11.054;2023-05-11T10:19:46;97768.22;;;14.70;100.00
19447;BME280;9862;49.462;11.054;2023-05-11T10:22:14;97767.19;;;14.71;100.00
19447;BME280;9862;49.462;11.054;2023-05-11T10:24:41;97764.06;;;14.63;100.00
19447;BME280;9862;49.462;11.054;2023-05-11T10:27:09;97768.50;;;14.57;100.00
19447;BME280;9862;49.462;11.054;2023-05-11T10:29:36;97754.25;;;14.51;100.00
19447;BME280;9862;49.462;11.054;2023-05-11T10:32:05;97762.59;;;14.55;100.00
19447;BME280;9862;49.462;11.054;2023-05-11T10:34:32;97757.59;;;14.58;100.00
19447;BME280;9862;49.462;11.054;2023-05-11T10:36:59;97756.28;;;14.61;100.00
19447;BME280;9862;49.462;11.054;2023-05-11T10:39:27;97757.34;;;14.60;100.00
19447;BME280;9862;49.462;11.054;2023-05-11T10:42:01;97752.44;;;14.57;100.00
19447;BME280;9862;49.462;11.054;2023-05-11T10:44:54;97747.59;;;14.54;100.00
19447;BME280;9862;49.462;11.054;2023-05-11T10:47:39;97746.06;;;14.58;100.00
19447;BME280;9862;49.462;11.054;2023-05-11T10:50:19;97746.38;;;14.62;100.00
19447;BME280;9862;49.462;11.054;2023-05-11T10:53:00;97745.63;;;14.49;100.00
19447;BME280;9862;49.462;11.054;2023-05-11T10:55:44;97747.38;;;14.44;100.00
19447;BME280;9862;49.462;11.054;2023-05-11T10:58:30;97748.81;;;14.35;100.00
19447;BME280;9862;49.462;11.054;2023-05-11T11:01:25;97744.03;;;14.37;100.00
19447;BME280;9862;49.462;11.054;2023-05-11T11:03:57;97739.16;;;14.33;100.00
19447;BME280;9862;49.462;11.054;2023-05-11T11:06:26;97747.06;;;14.40;100.00
19447;BME280;9862;49.462;11.054;2023-05-11T11:08:55;97741.09;;;14.50;100.00
19447;BME280;9862;49.462;11.054;2023-05-11T11:11:33;97749.78;;;14.57;100.00
19447;BME280;9862;49.462;11.054;2023-05-11T11:14:02;97746.38;;;14.62;100.00
19447;BME280;9862;49.462;11.054;2023-05-11T11:16:31;97749.56;;;14.75;100.00
19447;BME280;9862;49.462;11.054;2023-05-11T11:19:36;97744.78;;;14.77;100.00
19447;BME280;9862;49.462;11.054;2023-05-11T11:22:03;97738.94;;;14.80;100.00
19447;BME280;9862;49.462;11.054;2023-05-11T11:24:43;97736.66;;;14.72;100.00
19447;BME280;9862;49.462;11.054;2023-05-11T11:27:11;97743.38;;;14.75;100.00
19447;BME280;9862;49.462;11.054;2023-05-11T11:29:38;97740.38;;;14.71;100.00
19447;BME280;9862;49.462;11.054;2023-05-11T11:32:24;97745.91;;;14.65;100.00
19447;BME280;9862;49.462;11.054;2023-05-11T11:34:53;97738.78;;;14.70;100.00
19447;BME280;9862;49.462;11.054;2023-05-11T11:37:19;97740.38;;;14.71;100.00
19447;BME280;9862;49.462;11.054;2023-05-11T11:39:52;97740.88;;;14.68;100.00
19447;BME280;9862;49.462;11.054;2023-05-11T11:42:35;97742.47;;;14.52;100.00
19447;BME280;9862;49.462;11.054;2023-05-11T11:45:29;97749.78;;;14.57;100.00
19447;BME280;9862;49.462;11.054;2023-05-11T11:48:13;97745.66;;;14.66;100.00
19447;BME280;9862;49.462;11.054;2023-05-11T11:50:43;97755.13;;;14.57;100.00
19447;BME280;9862;49.462;11.054;2023-05-11T11:53:12;97753.91;;;14.48;100.00
19447;BME280;9862;49.462;11.054;2023-05-11T11:56:00;97762.03;;;14.53;100.00
19447;BME280;9862;49.462;11.054;2023-05-11T12:01:38;97754.94;;;14.47;100.00
19447;BME280;9862;49.462;11.054;2023-05-11T12:07:07;97749.78;;;14.57;100.00
19447;BME280;9862;49.462;11.054;2023-05-11T12:09:37;97747.69;;;14.59;100.00
19447;BME280;9862;49.462;11.054;2023-05-11T12:12:06;97747.69;;;14.59;100.00
19447;BME280;9862;49.462;11.054;2023-05-11T12:14:34;97748.16;;;14.56;100.00
19447;BME280;9862;49.462;11.054;2023-05-11T12:17:03;97750.25;;;14.54;100.00
19447;BME280;9862;49.462;11.054;2023-05-11T12:19:30;97751.31;;;14.53;100.00
19447;BME280;9862;49.462;11.054;2023-05-11T12:21:56;97750.75;;;14.51;100.00
19447;BME280;9862;49.462;11.054;2023-05-11T12:24:23;97752.56;;;14.62;100.00
19447;BME280;9862;49.462;11.054;2023-05-11T12:26:54;97762.13;;;14.75;100.00
19447;BME280;9862;49.462;11.054;2023-05-11T12:29:22;97749.56;;;14.75;100.00
19447;BME280;9862;49.462;11.054;2023-05-11T12:31:48;97750.78;;;14.84;100.00
19447;BME280;9862;49.462;11.054;2023-05-11T12:34:16;97754.63;;;14.88;100.00
19447;BME280;9862;49.462;11.054;2023-05-11T12:36:43;97752.91;;;14.82;100.00
19447;BME280;9862;49.462;11.054;2023-05-11T12:39:15;97751.78;;;14.78;100.00
19447;BME280;9862;49.462;11.054;2023-05-11T12:41:43;97758.25;;;14.82;100.00
19447;BME280;9862;49.462;11.054;2023-05-11T12:44:10;97758.09;;;14.89;100.00
19447;BME280;9862;49.462;11.054;2023-05-11T12:46:38;97754.09;;;14.75;100.00
19447;BME280;9862;49.462;11.054;2023-05-11T12:49:05;97764.00;;;14.74;100.00
19447;BME280;9862;49.462;11.054;2023-05-11T12:51:59;97762.88;;;14.70;100.00
19447;BME280;9862;49.462;11.054;2023-05-11T12:54:31;97755.78;;;14.64;100.00
19447;BME280;9862;49.462;11.054;2023-05-11T12:56:58;97761.06;;;14.59;100.00
19447;BME280;9862;49.462;11.054;2023-05-11T12:59:27;97758.69;;;14.34;100.00
19447;BME280;9862;49.462;11.054;2023-05-11T13:02:04;97764.78;;;14.29;100.00
19447;BME280;9862;49.462;11.054;2023-05-11T13:04:31;97762.75;;;14.37;100.00
19447;BME280;9862;49.462;11.054;2023-05-11T13:06:57;97754.72;;;14.48;100.00
19447;BME280;9862;49.462;11.054;2023-05-11T13:09:24;97752.69;;;14.55;100.00